createdAt,value
2023-07-04T00:00:10.252Z,63.50
2023-07-04T00:02:36.569Z,63.31
2023-07-04T00:05:02.957Z,63.26
2023-07-04T00:07:29.236Z,63.58
2023-07-04T00:09:55.541Z,63.44
2023-07-04T00:12:21.805Z,63.58
2023-07-04T00:14:48.084Z,63.79
2023-07-04T00:17:14.444Z,63.96
2023-07-04T00:19:40.698Z,64.08
2023-07-04T00:22:06.974Z,64.07
2023-07-04T00:24:33.257Z,63.60
2023-07-04T00:26:59.556Z,63.63
2023-07-04T00:29:25.837Z,64.05
2023-07-04T00:31:52.091Z,64.08
2023-07-04T00:34:18.360Z,64.13
2023-07-04T00:36:44.820Z,63.84
2023-07-04T00:39:11.105Z,64.18
2023-07-04T00:41:37.372Z,64.16
2023-07-04T00:44:03.668Z,63.96
2023-07-04T00:46:29.967Z,64.45
2023-07-04T00:48:56.302Z,64.05
2023-07-04T00:51:22.612Z,63.67
2023-07-04T00:53:48.881Z,64.17
2023-07-04T00:56:15.156Z,64.13
2023-07-04T00:58:41.415Z,63.88
2023-07-04T01:01:07.665Z,63.97
2023-07-04T01:03:34.016Z,64.38
2023-07-04T01:06:00.390Z,64.58
2023-07-04T01:08:26.673Z,64.34
2023-07-04T01:10:53.278Z,64.18
2023-07-04T01:13:19.838Z,64.30
2023-07-04T01:15:46.163Z,64.15
2023-07-04T01:18:12.521Z,64.50
2023-07-04T01:20:38.788Z,64.34
2023-07-04T01:23:05.081Z,64.74
2023-07-04T01:25:31.353Z,64.38
2023-07-04T01:27:57.686Z,64.64
2023-07-04T01:30:23.990Z,64.72
2023-07-04T01:32:50.318Z,64.66
2023-07-04T01:35:16.620Z,64.40
2023-07-04T01:37:42.899Z,64.50
2023-07-04T01:40:09.184Z,64.37
2023-07-04T01:42:35.576Z,64.77
2023-07-04T01:45:01.869Z,65.08
2023-07-04T01:47:28.161Z,64.83
2023-07-04T01:49:54.460Z,64.39
2023-07-04T01:52:20.727Z,65.15
2023-07-04T01:54:47.008Z,64.96
2023-07-04T01:57:13.308Z,65.07
2023-07-04T01:59:39.579Z,64.88
2023-07-04T02:02:05.866Z,64.95
2023-07-04T02:04:32.135Z,65.01
2023-07-04T02:06:58.424Z,65.09
2023-07-04T02:09:24.696Z,64.99
2023-07-04T02:11:50.959Z,65.40
2023-07-04T02:14:17.236Z,65.29
2023-07-04T02:16:43.577Z,65.34
2023-07-04T02:19:09.943Z,65.31
2023-07-04T02:21:36.238Z,64.83
2023-07-04T02:24:02.524Z,64.96
2023-07-04T02:26:28.805Z,66.11
2023-07-04T02:28:55.105Z,66.26
2023-07-04T02:31:21.382Z,65.64
2023-07-04T02:33:47.703Z,65.17
2023-07-04T02:36:13.985Z,64.71
2023-07-04T02:38:40.328Z,64.71
2023-07-04T02:41:06.599Z,64.56
2023-07-04T02:43:32.867Z,65.10
2023-07-04T02:45:59.148Z,65.21
2023-07-04T02:48:25.430Z,65.05
2023-07-04T02:50:51.989Z,65.34
2023-07-04T02:53:18.438Z,65.12
2023-07-04T02:55:44.964Z,65.57
2023-07-04T02:58:11.268Z,66.10
2023-07-04T03:00:37.609Z,65.45
2023-07-04T03:03:04.001Z,65.28
2023-07-04T03:05:30.419Z,65.25
2023-07-04T03:07:56.717Z,64.93
2023-07-04T03:10:22.975Z,64.87
2023-07-04T03:12:49.246Z,64.37
2023-07-04T03:15:15.519Z,64.24
2023-07-04T03:17:41.901Z,63.57
2023-07-04T03:20:08.265Z,63.56
2023-07-04T03:22:34.530Z,64.02
2023-07-04T03:25:00.817Z,64.47
2023-07-04T03:27:27.103Z,64.42
2023-07-04T03:29:53.393Z,63.45
2023-07-04T03:32:19.729Z,63.28
2023-07-04T03:34:46.008Z,62.86
2023-07-04T03:37:12.276Z,62.68
2023-07-04T03:39:38.588Z,62.34
2023-07-04T03:42:04.863Z,63.00
2023-07-04T03:44:31.135Z,62.75
2023-07-04T03:46:58.481Z,62.60
2023-07-04T03:49:24.782Z,63.20
2023-07-04T03:51:51.065Z,63.35
2023-07-04T03:54:17.356Z,63.25
2023-07-04T03:56:43.645Z,63.93
2023-07-04T03:59:09.967Z,63.68
2023-07-04T04:01:36.248Z,64.21
2023-07-04T04:04:02.728Z,64.15
2023-07-04T04:06:29.104Z,64.22
2023-07-04T04:08:55.380Z,64.02
2023-07-04T04:11:21.652Z,63.61
2023-07-04T04:13:47.945Z,64.26
2023-07-04T04:16:14.343Z,64.14
2023-07-04T04:18:40.698Z,64.80
2023-07-04T04:21:06.973Z,64.93
2023-07-04T04:23:33.257Z,64.56
2023-07-04T04:25:59.553Z,64.85
2023-07-04T04:28:25.831Z,64.61
2023-07-04T04:30:52.328Z,64.99
2023-07-04T04:33:18.865Z,64.28
2023-07-04T04:35:45.159Z,64.44
2023-07-04T04:38:12.017Z,64.55
2023-07-04T04:40:39.690Z,64.60
2023-07-04T04:43:05.991Z,64.71
2023-07-04T04:45:32.298Z,65.14
2023-07-04T04:47:58.627Z,65.55
2023-07-04T04:50:24.929Z,66.44
2023-07-04T04:52:51.305Z,67.19
2023-07-04T04:55:17.608Z,67.30
2023-07-04T04:57:43.936Z,67.53
2023-07-04T05:00:10.322Z,67.45
2023-07-04T05:02:36.624Z,67.77
2023-07-04T05:05:02.951Z,67.53
2023-07-04T05:07:29.235Z,67.57
2023-07-04T05:09:55.503Z,67.92
2023-07-04T05:12:21.776Z,67.78
2023-07-04T05:14:48.057Z,67.71
2023-07-04T05:17:14.308Z,68.32
2023-07-04T05:19:41.040Z,68.24
2023-07-04T05:22:07.336Z,68.37
2023-07-04T05:24:33.606Z,68.68
2023-07-04T05:26:59.855Z,69.28
2023-07-04T05:29:26.124Z,69.02
2023-07-04T05:31:52.444Z,68.89
2023-07-04T05:34:18.749Z,69.44
2023-07-04T05:36:45.350Z,68.82
2023-07-04T05:39:11.627Z,69.03
2023-07-04T05:41:37.876Z,69.12
2023-07-04T05:44:04.234Z,69.09
2023-07-04T05:46:30.529Z,68.68
2023-07-04T05:48:56.826Z,69.29
2023-07-04T05:51:23.149Z,69.51
2023-07-04T05:53:49.417Z,69.38
2023-07-04T05:56:15.690Z,69.19
2023-07-04T05:58:41.949Z,68.69
2023-07-04T06:01:08.224Z,68.37
2023-07-04T06:03:34.620Z,68.14
2023-07-04T06:06:01.000Z,67.12
2023-07-04T06:08:27.260Z,68.34
2023-07-04T06:10:53.883Z,67.85
2023-07-04T06:13:20.374Z,66.28
2023-07-04T06:15:46.682Z,65.89
2023-07-04T06:18:13.054Z,65.24
2023-07-04T06:20:39.389Z,64.89
2023-07-04T06:23:05.673Z,65.68
2023-07-04T06:25:31.945Z,64.41
2023-07-04T06:27:58.278Z,63.29
2023-07-04T06:30:24.545Z,64.06
2023-07-04T06:32:50.937Z,62.73
2023-07-04T06:35:17.311Z,63.36
2023-07-04T06:37:43.925Z,64.21
2023-07-04T06:40:10.202Z,62.05
2023-07-04T06:42:36.487Z,64.93
2023-07-04T06:45:02.747Z,63.69
2023-07-04T06:47:29.212Z,62.82
2023-07-04T06:49:55.538Z,63.84
2023-07-04T06:52:21.819Z,63.75
2023-07-04T06:54:48.100Z,61.95
2023-07-04T06:57:14.391Z,63.75
2023-07-04T06:59:40.642Z,63.08
2023-07-04T07:02:06.923Z,63.65
2023-07-04T07:04:33.303Z,60.57
2023-07-04T07:06:59.587Z,59.30
2023-07-04T07:09:25.862Z,62.30
2023-07-04T07:11:52.140Z,63.05
2023-07-04T07:14:18.411Z,61.03
2023-07-04T07:16:44.765Z,63.99
2023-07-04T07:19:13.684Z,64.13
2023-07-04T07:21:41.634Z,61.44
2023-07-04T07:24:08.145Z,60.84
2023-07-04T07:26:34.454Z,61.89
2023-07-04T07:29:00.739Z,62.71
2023-07-04T07:33:56.252Z,56.30
2023-07-04T07:36:22.599Z,57.62
2023-07-04T07:38:48.873Z,57.53
2023-07-04T07:41:15.241Z,58.47
2023-07-04T07:43:41.659Z,57.23
2023-07-04T07:46:08.008Z,58.03
2023-07-04T07:48:34.438Z,57.80
2023-07-04T07:51:00.810Z,58.89
2023-07-04T07:53:27.376Z,59.65
2023-07-04T07:55:53.664Z,58.62
2023-07-04T07:58:19.949Z,58.32
2023-07-04T08:00:46.280Z,59.43
2023-07-04T08:03:12.810Z,60.14
2023-07-04T08:05:39.180Z,61.04
2023-07-04T08:08:05.487Z,55.97
2023-07-04T08:10:31.841Z,55.99
2023-07-04T08:12:58.126Z,55.33
2023-07-04T08:15:24.466Z,56.40
2023-07-04T08:17:50.847Z,55.80
2023-07-04T08:20:17.228Z,56.56
2023-07-04T08:22:43.637Z,56.16
2023-07-04T08:25:10.009Z,54.90
2023-07-04T08:27:36.261Z,54.24
2023-07-04T08:30:02.616Z,53.93
2023-07-04T08:32:28.993Z,54.06
2023-07-04T08:34:55.363Z,54.16
2023-07-04T08:37:21.651Z,53.83
2023-07-04T08:39:47.924Z,52.04
2023-07-04T08:42:14.201Z,53.61
2023-07-04T08:44:40.488Z,53.65
2023-07-04T08:47:06.806Z,50.19
2023-07-04T08:49:33.088Z,51.31
2023-07-04T08:51:59.364Z,52.38
2023-07-04T08:54:25.655Z,49.70
2023-07-04T08:56:51.946Z,50.77
2023-07-04T08:59:18.280Z,47.37
2023-07-04T09:01:44.602Z,47.75
2023-07-04T09:04:10.926Z,48.83
2023-07-04T09:06:37.213Z,49.28
2023-07-04T09:09:03.494Z,47.89
2023-07-04T09:11:29.786Z,47.18
2023-07-04T09:13:56.139Z,47.80
2023-07-04T09:16:22.567Z,48.64
2023-07-04T09:18:48.969Z,47.20
2023-07-04T09:21:15.247Z,46.66
2023-07-04T09:23:41.569Z,46.34
2023-07-04T09:26:07.904Z,46.68
2023-07-04T09:28:34.199Z,47.69
2023-07-04T09:31:00.547Z,47.45
2023-07-04T09:33:26.874Z,45.71
2023-07-04T09:35:53.162Z,46.87
2023-07-04T09:38:19.461Z,49.75
2023-07-04T09:40:45.884Z,45.84
2023-07-04T09:43:12.326Z,47.56
2023-07-04T09:45:38.750Z,50.50
2023-07-04T09:48:05.093Z,50.20
2023-07-04T09:50:31.403Z,48.09
2023-07-04T09:52:57.707Z,43.22
2023-07-04T09:55:24.014Z,44.71
2023-07-04T09:57:50.285Z,46.28
2023-07-04T10:00:16.568Z,43.97
2023-07-04T10:02:42.906Z,42.90
2023-07-04T10:05:09.283Z,43.21
2023-07-04T10:07:35.565Z,42.21
2023-07-04T10:10:01.846Z,40.32
2023-07-04T10:12:28.778Z,43.02
2023-07-04T10:14:56.192Z,44.65
2023-07-04T10:17:22.707Z,41.66
2023-07-04T10:19:49.118Z,43.30
2023-07-04T10:22:15.398Z,41.93
2023-07-04T10:24:41.667Z,41.96
2023-07-04T10:27:07.945Z,42.43
2023-07-04T10:29:34.230Z,40.79
2023-07-04T10:32:00.529Z,40.95
2023-07-04T10:34:26.808Z,39.66
2023-07-04T10:36:53.074Z,38.79
2023-07-04T10:39:19.353Z,39.45
2023-07-04T10:41:45.649Z,40.03
2023-07-04T10:44:11.967Z,39.26
2023-07-04T10:46:38.307Z,39.74
2023-07-04T10:49:04.644Z,38.73
2023-07-04T10:51:30.916Z,38.69
2023-07-04T10:53:57.275Z,39.59
2023-07-04T10:56:23.552Z,40.71
2023-07-04T10:58:49.824Z,42.27
2023-07-04T11:01:16.142Z,41.13
2023-07-04T11:03:42.516Z,40.46
2023-07-04T11:06:08.826Z,43.04
2023-07-04T11:08:35.101Z,41.76
2023-07-04T11:11:01.401Z,39.70
2023-07-04T11:13:27.750Z,40.32
2023-07-04T11:15:54.021Z,37.69
2023-07-04T11:18:20.312Z,39.19
2023-07-04T11:20:46.569Z,40.27
2023-07-04T11:23:12.896Z,40.10
2023-07-04T11:25:39.194Z,37.86
2023-07-04T11:28:05.464Z,38.13
2023-07-04T11:30:31.822Z,38.34
2023-07-04T11:32:58.230Z,37.03
2023-07-04T11:35:24.501Z,38.81
2023-07-04T11:37:50.828Z,39.25
2023-07-04T11:40:17.105Z,37.41
2023-07-04T11:42:43.398Z,37.44
2023-07-04T11:45:09.705Z,36.56
2023-07-04T11:47:38.324Z,36.45
2023-07-04T11:50:06.326Z,36.74
2023-07-04T11:52:32.587Z,36.79
2023-07-04T11:54:58.864Z,37.97
2023-07-04T11:57:25.222Z,37.63
2023-07-04T11:59:51.516Z,36.75
2023-07-04T12:02:17.842Z,37.19
2023-07-04T12:04:44.170Z,39.62
2023-07-04T12:07:10.471Z,39.10
2023-07-04T12:09:37.922Z,37.84
2023-07-04T12:12:05.375Z,38.43
2023-07-04T12:14:31.656Z,39.01
2023-07-04T12:16:57.932Z,38.91
2023-07-04T12:19:24.220Z,37.81
2023-07-04T12:21:50.535Z,37.85
2023-07-04T12:24:16.809Z,37.59
2023-07-04T12:26:43.100Z,34.91
2023-07-04T12:29:16.719Z,35.65
2023-07-04T12:31:43.496Z,35.44
2023-07-04T12:34:10.238Z,35.04
2023-07-04T12:36:36.688Z,36.12
2023-07-04T12:39:03.008Z,34.98
2023-07-04T12:41:29.261Z,34.71
2023-07-04T12:51:23.091Z,34.51
2023-07-04T12:53:49.435Z,34.67
2023-07-04T12:56:15.686Z,35.88
2023-07-04T12:58:42.009Z,35.36
2023-07-04T13:01:09.699Z,33.28
2023-07-04T13:03:36.110Z,33.92
2023-07-04T13:06:02.453Z,34.56
2023-07-04T13:08:28.737Z,34.14
2023-07-04T13:10:55.148Z,35.73
2023-07-04T13:13:22.560Z,33.75
2023-07-04T13:15:48.955Z,33.36
2023-07-04T13:18:15.230Z,32.38
2023-07-04T13:20:41.478Z,32.08
2023-07-04T13:30:22.056Z,32.27
2023-07-04T13:33:21.547Z,32.30
2023-07-04T13:35:47.837Z,33.02
2023-07-04T13:40:43.286Z,32.03
2023-07-04T13:45:38.799Z,32.65
2023-07-04T13:48:05.115Z,31.53
2023-07-04T13:50:31.440Z,31.87
2023-07-04T13:53:12.785Z,32.34
2023-07-04T13:55:40.348Z,31.86
2023-07-04T13:58:06.697Z,30.72
2023-07-04T14:00:55.276Z,31.02
2023-07-04T14:05:55.235Z,32.33
2023-07-04T14:08:24.567Z,29.88
2023-07-04T14:10:50.837Z,29.99
2023-07-04T14:13:17.201Z,30.76
2023-07-04T14:20:41.928Z,29.92
2023-07-04T14:23:08.290Z,31.27
2023-07-04T14:25:34.584Z,30.94
2023-07-04T14:28:00.940Z,30.40
2023-07-04T14:30:27.255Z,30.17
2023-07-04T14:32:53.572Z,30.49
2023-07-04T14:35:19.884Z,30.25
2023-07-04T14:37:46.191Z,30.57
2023-07-04T14:42:30.119Z,30.38
2023-07-04T14:42:58.751Z,30.18
2023-07-04T14:45:25.017Z,30.25
2023-07-04T14:47:51.360Z,30.61
2023-07-04T14:50:17.676Z,30.70
2023-07-04T14:52:43.933Z,30.25
2023-07-04T14:55:10.209Z,29.74
2023-07-04T14:57:36.527Z,30.53
2023-07-04T15:00:02.777Z,30.35
2023-07-04T15:02:29.111Z,30.39
2023-07-04T15:04:55.411Z,29.17
2023-07-04T15:07:21.688Z,29.38
2023-07-04T15:09:47.977Z,28.76
2023-07-04T15:12:14.258Z,29.73
2023-07-04T15:14:40.525Z,28.99
2023-07-04T15:17:06.772Z,29.80
2023-07-04T15:19:33.140Z,29.47
2023-07-04T15:21:59.554Z,29.77
2023-07-04T15:24:26.976Z,29.89
2023-07-04T15:26:53.363Z,29.93
2023-07-04T15:29:19.652Z,29.78
2023-07-04T15:31:45.962Z,29.22
2023-07-04T15:34:12.251Z,29.36
2023-07-04T15:36:38.527Z,29.55
2023-07-04T15:39:04.802Z,29.62
2023-07-04T15:41:31.144Z,30.14
2023-07-04T15:43:57.454Z,30.64
2023-07-04T15:46:25.337Z,30.39
2023-07-04T15:48:53.455Z,30.09
2023-07-04T15:51:19.784Z,30.48
2023-07-04T15:53:46.064Z,30.24
2023-07-04T15:56:12.385Z,30.03
2023-07-04T15:58:38.690Z,30.93
2023-07-04T16:01:05.010Z,29.33
2023-07-04T16:03:31.584Z,30.25
2023-07-04T16:05:58.111Z,29.40
2023-07-04T16:08:24.386Z,29.64
2023-07-04T16:10:50.633Z,29.83
2023-07-04T16:13:16.933Z,30.32
2023-07-04T16:15:43.198Z,30.00
2023-07-04T16:18:09.591Z,30.46
2023-07-04T16:20:35.929Z,30.34
2023-07-04T16:23:02.241Z,28.75
2023-07-04T16:25:28.510Z,30.16
2023-07-04T16:27:54.787Z,29.28
2023-07-04T16:30:21.048Z,30.13
2023-07-04T16:32:47.328Z,28.56
2023-07-04T16:35:13.733Z,28.90
2023-07-04T16:37:40.006Z,29.26
2023-07-04T16:40:06.288Z,30.25
2023-07-04T16:42:32.612Z,28.24
2023-07-04T16:44:58.905Z,29.41
2023-07-04T16:47:25.231Z,28.70
2023-07-04T16:49:51.584Z,28.32
2023-07-04T16:52:17.881Z,29.10
2023-07-04T16:54:44.149Z,28.97
2023-07-04T16:57:10.418Z,28.68
2023-07-04T16:59:36.696Z,28.96
2023-07-04T17:02:03.014Z,29.03
2023-07-04T17:04:29.346Z,28.82
2023-07-04T17:06:55.608Z,29.46
2023-07-04T17:09:22.933Z,29.03
2023-07-04T17:11:49.327Z,28.04
2023-07-04T17:14:15.707Z,27.87
2023-07-04T17:16:42.075Z,28.57
2023-07-04T17:19:08.395Z,27.75
2023-07-04T17:21:34.658Z,28.14
2023-07-04T17:24:00.930Z,27.43
2023-07-04T17:26:27.197Z,27.82
2023-07-04T17:28:53.563Z,27.67
2023-07-04T17:31:19.941Z,27.80
2023-07-04T17:33:46.245Z,27.67
2023-07-04T17:36:12.509Z,27.67
2023-07-04T17:38:38.761Z,27.44
2023-07-04T17:41:05.019Z,27.21
2023-07-04T17:43:31.311Z,27.11
2023-07-04T17:45:57.597Z,26.65
2023-07-04T17:48:23.919Z,28.09
2023-07-04T17:50:50.179Z,27.72
2023-07-04T17:53:16.451Z,26.47
2023-07-04T17:55:42.712Z,26.47
2023-07-04T17:58:08.999Z,26.56
2023-07-04T18:00:35.269Z,27.20
2023-07-04T18:03:01.675Z,27.65
2023-07-04T18:05:28.007Z,29.00
2023-07-04T18:07:54.298Z,27.96
2023-07-04T18:10:20.564Z,27.82
2023-07-04T18:12:46.863Z,27.81
2023-07-04T18:15:13.114Z,27.75
2023-07-04T18:17:39.423Z,28.17
2023-07-04T18:20:05.741Z,28.17
2023-07-04T18:22:32.015Z,28.34
2023-07-04T18:24:58.283Z,29.04
2023-07-04T18:27:24.560Z,28.87
2023-07-04T18:29:50.817Z,28.94
2023-07-04T18:32:17.071Z,28.76
2023-07-04T18:34:43.326Z,28.61
2023-07-04T18:37:09.590Z,28.88
2023-07-04T18:39:35.858Z,29.05
2023-07-04T18:42:02.120Z,28.32
2023-07-04T18:44:28.427Z,28.43
2023-07-04T18:46:54.864Z,28.83
2023-07-04T18:49:21.194Z,29.10
2023-07-04T18:51:47.459Z,29.66
2023-07-04T18:54:13.722Z,31.20
2023-07-04T18:56:39.981Z,31.02
2023-07-04T18:59:06.273Z,29.67
2023-07-04T19:01:32.685Z,29.30
2023-07-04T19:03:59.158Z,30.48
2023-07-04T19:06:25.463Z,30.45
2023-07-04T19:08:51.727Z,30.91
2023-07-04T19:11:17.992Z,32.64
2023-07-04T19:13:44.333Z,32.73
2023-07-04T19:16:10.710Z,32.00
2023-07-04T19:18:37.194Z,32.72
2023-07-04T19:21:03.606Z,32.25
2023-07-04T19:23:29.888Z,33.72
2023-07-04T19:25:56.154Z,33.75
2023-07-04T19:28:22.423Z,34.06
2023-07-04T19:30:48.698Z,34.34
2023-07-04T19:33:16.157Z,34.22
2023-07-04T19:35:44.655Z,34.09
2023-07-04T19:38:10.941Z,34.53
2023-07-04T19:40:37.210Z,34.50
2023-07-04T19:43:03.503Z,34.88
2023-07-04T19:45:29.784Z,35.72
2023-07-04T19:47:56.086Z,34.52
2023-07-04T19:50:22.379Z,35.48
2023-07-04T19:52:48.649Z,36.00
2023-07-04T19:55:14.926Z,35.88
2023-07-04T19:57:41.189Z,36.57
2023-07-04T20:00:07.472Z,36.70
2023-07-04T20:02:33.950Z,37.01
2023-07-04T20:05:00.272Z,37.04
2023-07-04T20:07:26.595Z,37.30
2023-07-04T20:09:52.869Z,37.28
2023-07-04T20:12:19.161Z,37.70
2023-07-04T20:14:45.614Z,38.10
2023-07-04T20:17:11.916Z,38.37
2023-07-04T20:19:38.190Z,38.19
2023-07-04T20:22:04.466Z,37.95
2023-07-04T20:24:30.749Z,38.34
2023-07-04T20:26:57.007Z,38.28
2023-07-04T20:29:23.292Z,38.23
2023-07-04T20:31:49.558Z,37.82
2023-07-04T20:34:15.828Z,38.79
2023-07-04T20:36:42.089Z,39.31
2023-07-04T20:39:08.362Z,40.20
2023-07-04T20:41:34.657Z,40.22
2023-07-04T20:44:00.927Z,39.71
2023-07-04T20:46:27.232Z,40.02
2023-07-04T20:48:53.509Z,39.49
2023-07-04T20:51:19.792Z,39.49
2023-07-04T20:53:46.042Z,40.15
2023-07-04T20:56:12.337Z,39.73
2023-07-04T20:58:38.616Z,40.75
2023-07-04T21:01:04.941Z,40.96
2023-07-04T21:03:31.420Z,40.82
2023-07-04T21:05:57.772Z,40.68
2023-07-04T21:08:24.042Z,41.20
2023-07-04T21:10:50.323Z,40.65
2023-07-04T21:13:16.629Z,40.76
2023-07-04T21:15:43.159Z,41.28
2023-07-04T21:18:09.508Z,41.90
2023-07-04T21:20:35.784Z,42.71
2023-07-04T21:23:02.053Z,42.50
2023-07-04T21:25:28.689Z,42.18
2023-07-04T21:27:54.952Z,42.08
2023-07-04T21:30:21.240Z,42.85
2023-07-04T21:32:47.501Z,42.63
2023-07-04T21:35:13.796Z,43.04
2023-07-04T21:37:40.061Z,42.95
2023-07-04T21:40:06.362Z,43.46
2023-07-04T21:42:32.647Z,42.72
2023-07-04T21:44:58.931Z,42.68
2023-07-04T21:47:25.260Z,42.72
2023-07-04T21:49:51.538Z,43.20
2023-07-04T21:52:17.820Z,43.11
2023-07-04T21:54:45.377Z,43.06
2023-07-04T21:57:11.897Z,43.21
2023-07-04T21:59:38.150Z,42.98
2023-07-04T22:02:04.446Z,43.45
2023-07-04T22:04:30.745Z,43.64
2023-07-04T22:06:59.203Z,42.83
2023-07-04T22:09:25.894Z,43.28
2023-07-04T22:11:52.228Z,43.08
2023-07-04T22:14:31.984Z,43.21
2023-07-04T22:17:03.933Z,43.43
2023-07-04T22:19:30.267Z,43.91
2023-07-04T22:21:56.525Z,43.71
2023-07-04T22:24:22.789Z,44.14
2023-07-04T22:26:49.053Z,43.75
2023-07-04T22:29:15.410Z,43.96
2023-07-04T22:31:41.687Z,44.64
2023-07-04T22:34:07.980Z,44.76
2023-07-04T22:36:34.271Z,44.44
2023-07-04T22:39:00.555Z,44.18
2023-07-04T22:41:26.831Z,44.67
2023-07-04T22:43:53.117Z,44.94
2023-07-04T22:46:19.423Z,44.86
2023-07-04T22:48:45.714Z,45.15
2023-07-04T22:51:11.995Z,44.97
2023-07-04T22:53:38.271Z,44.49
2023-07-04T22:56:04.556Z,44.56
2023-07-04T22:58:30.839Z,45.38
2023-07-04T23:00:57.113Z,45.07
2023-07-04T23:03:23.463Z,45.13
2023-07-04T23:05:49.766Z,44.97
2023-07-04T23:08:16.039Z,44.59
2023-07-04T23:10:42.317Z,44.62
2023-07-04T23:13:08.581Z,44.74
2023-07-04T23:15:34.840Z,45.76
2023-07-04T23:18:01.262Z,45.76
2023-07-04T23:20:27.649Z,46.41
2023-07-04T23:22:53.937Z,46.73
2023-07-04T23:25:20.201Z,46.46
2023-07-04T23:27:46.481Z,46.08
2023-07-04T23:30:12.755Z,46.02
2023-07-04T23:32:39.107Z,46.02
2023-07-04T23:35:05.627Z,45.69
2023-07-04T23:37:31.938Z,46.13
2023-07-04T23:39:58.224Z,45.93
2023-07-04T23:42:24.485Z,45.84
2023-07-04T23:44:50.774Z,45.45
2023-07-04T23:47:17.055Z,45.48
2023-07-04T23:49:43.556Z,45.52
2023-07-04T23:52:09.869Z,45.33
2023-07-04T23:54:36.141Z,45.14
2023-07-04T23:57:02.413Z,45.11
2023-07-04T23:59:28.666Z,44.05
